sensor_id;sensor_type;location;lat;lon;timestamp;temperature;humidity
73509;SHT30;61750;55.036;73.312;2022-12-07T00:00:05;-15.24;75.99
73509;SHT30;61750;55.036;73.312;2022-12-07T00:02:39;-15.17;76.12
73509;SHT30;61750;55.036;73.312;2022-12-07T00:05:05;-15.11;75.95
73509;SHT30;61750;55.036;73.312;2022-12-07T00:07:31;-15.11;75.39
73509;SHT30;61750;55.036;73.312;2022-12-07T00:09:57;-15.08;75.37
73509;SHT30;61750;55.036;73.312;2022-12-07T00:12:23;-15.01;75.36
73509;SHT30;61750;55.036;73.312;2022-12-07T00:14:53;-14.99;75.14
73509;SHT30;61750;55.036;73.312;2022-12-07T00:17:21;-14.90;75.05
73509;SHT30;61750;55.036;73.312;2022-12-07T00:19:48;-14.94;74.78
73509;SHT30;61750;55.036;73.312;2022-12-07T00:22:13;-14.93;74.80
73509;SHT30;61750;55.036;73.312;2022-12-07T00:24:49;-14.93;74.74
73509;SHT30;61750;55.036;73.312;2022-12-07T00:27:15;-14.92;74.72
73509;SHT30;61750;55.036;73.312;2022-12-07T00:29:48;-14.90;74.64
73509;SHT30;61750;55.036;73.312;2022-12-07T00:32:24;-14.87;74.61
73509;SHT30;61750;55.036;73.312;2022-12-07T00:34:49;-14.90;74.22
73509;SHT30;61750;55.036;73.312;2022-12-07T00:37:15;-14.87;74.02
73509;SHT30;61750;55.036;73.312;2022-12-07T00:39:48;-14.84;73.86
73509;SHT30;61750;55.036;73.312;2022-12-07T00:42:13;-14.80;73.39
73509;SHT30;61750;55.036;73.312;2022-12-07T00:44:48;-14.77;73.11
73509;SHT30;61750;55.036;73.312;2022-12-07T00:47:14;-14.75;72.74
73509;SHT30;61750;55.036;73.312;2022-12-07T00:49:48;-14.79;72.34
73509;SHT30;61750;55.036;73.312;2022-12-07T00:52:14;-14.79;72.42
73509;SHT30;61750;55.036;73.312;2022-12-07T00:54:40;-14.83;71.89
73509;SHT30;61750;55.036;73.312;2022-12-07T00:57:06;-14.86;72.20
73509;SHT30;61750;55.036;73.312;2022-12-07T00:59:48;-14.84;72.16
73509;SHT30;61750;55.036;73.312;2022-12-07T01:02:24;-14.87;72.11
73509;SHT30;61750;55.036;73.312;2022-12-07T01:05:00;-14.82;72.14
73509;SHT30;61750;55.036;73.312;2022-12-07T01:07:30;-14.90;71.61
73509;SHT30;61750;55.036;73.312;2022-12-07T01:09:56;-14.96;71.76
73509;SHT30;61750;55.036;73.312;2022-12-07T01:12:22;-14.94;72.24
73509;SHT30;61750;55.036;73.312;2022-12-07T01:14:48;-14.96;72.30
73509;SHT30;61750;55.036;73.312;2022-12-07T01:17:19;-14.96;72.12
73509;SHT30;61750;55.036;73.312;2022-12-07T01:19:48;-14.94;72.66
73509;SHT30;61750;55.036;73.312;2022-12-07T01:22:14;-14.92;72.11
73509;SHT30;61750;55.036;73.312;2022-12-07T01:24:40;-15.01;72.03
73509;SHT30;61750;55.036;73.312;2022-12-07T01:27:05;-15.00;71.88
73509;SHT30;61750;55.036;73.312;2022-12-07T01:29:48;-15.06;71.83
73509;SHT30;61750;55.036;73.312;2022-12-07T01:32:18;-15.06;72.23
73509;SHT30;61750;55.036;73.312;2022-12-07T01:34:48;-15.03;72.55
73509;SHT30;61750;55.036;73.312;2022-12-07T01:37:14;-15.06;72.49
73509;SHT30;61750;55.036;73.312;2022-12-07T01:39:48;-15.00;72.25
73509;SHT30;61750;55.036;73.312;2022-12-07T01:42:15;-14.94;72.44
73509;SHT30;61750;55.036;73.312;2022-12-07T01:47:32;-15.01;72.41
73509;SHT30;61750;55.036;73.312;2022-12-07T01:49:58;-14.99;72.48
73509;SHT30;61750;55.036;73.312;2022-12-07T01:52:28;-14.99;72.16
73509;SHT30;61750;55.036;73.312;2022-12-07T01:55:03;-14.99;72.29
73509;SHT30;61750;55.036;73.312;2022-12-07T01:57:30;-15.04;72.12
73509;SHT30;61750;55.036;73.312;2022-12-07T01:59:57;-15.07;71.92
73509;SHT30;61750;55.036;73.312;2022-12-07T02:02:26;-15.17;70.79
73509;SHT30;61750;55.036;73.312;2022-12-07T02:05:04;-15.26;71.36
73509;SHT30;61750;55.036;73.312;2022-12-07T02:07:40;-15.27;71.34
73509;SHT30;61750;55.036;73.312;2022-12-07T02:10:17;-15.27;71.37
73509;SHT30;61750;55.036;73.312;2022-12-07T02:13:05;-15.32;71.13
73509;SHT30;61750;55.036;73.312;2022-12-07T02:19:02;-15.38;71.00
73509;SHT30;61750;55.036;73.312;2022-12-07T02:32:53;-15.66;70.04
73509;SHT30;61750;55.036;73.312;2022-12-07T02:35:17;-15.59;70.78
73509;SHT30;61750;55.036;73.312;2022-12-07T02:37:49;-15.63;70.35
73509;SHT30;61750;55.036;73.312;2022-12-07T02:40:21;-15.69;70.30
73509;SHT30;61750;55.036;73.312;2022-12-07T02:43:01;-15.73;70.50
73509;SHT30;61750;55.036;73.312;2022-12-07T02:45:27;-15.75;70.02
73509;SHT30;61750;55.036;73.312;2022-12-07T02:47:56;-15.76;69.78
73509;SHT30;61750;55.036;73.312;2022-12-07T02:50:34;-15.73;70.10
73509;SHT30;61750;55.036;73.312;2022-12-07T02:53:00;-15.66;70.15
73509;SHT30;61750;55.036;73.312;2022-12-07T02:55:28;-15.63;70.20
73509;SHT30;61750;55.036;73.312;2022-12-07T02:58:01;-15.59;70.37
73509;SHT30;61750;55.036;73.312;2022-12-07T03:00:29;-15.69;69.91
73509;SHT30;61750;55.036;73.312;2022-12-07T03:03:09;-15.75;69.88
73509;SHT30;61750;55.036;73.312;2022-12-07T03:08:17;-15.79;69.39
73509;SHT30;61750;55.036;73.312;2022-12-07T03:16:08;-15.83;68.31
73509;SHT30;61750;55.036;73.312;2022-12-07T03:18:38;-15.87;67.88
73509;SHT30;61750;55.036;73.312;2022-12-07T03:21:08;-15.89;67.69
73509;SHT30;61750;55.036;73.312;2022-12-07T03:30:27;-15.78;68.26
73509;SHT30;61750;55.036;73.312;2022-12-07T03:33:02;-15.69;68.83
73509;SHT30;61750;55.036;73.312;2022-12-07T03:37:59;-15.42;70.15
73509;SHT30;61750;55.036;73.312;2022-12-07T03:40:29;-15.41;70.11
73509;SHT30;61750;55.036;73.312;2022-12-07T03:42:56;-15.38;70.43
73509;SHT30;61750;55.036;73.312;2022-12-07T03:45:27;-15.38;70.43
73509;SHT30;61750;55.036;73.312;2022-12-07T03:50:49;-15.38;70.60
73509;SHT30;61750;55.036;73.312;2022-12-07T03:53:20;-15.48;70.63
73509;SHT30;61750;55.036;73.312;2022-12-07T03:55:48;-15.48;71.14
73509;SHT30;61750;55.036;73.312;2022-12-07T03:58:16;-15.48;71.06
73509;SHT30;61750;55.036;73.312;2022-12-07T04:00:43;-15.48;71.49
73509;SHT30;61750;55.036;73.312;2022-12-07T04:07:27;-15.63;71.24
73509;SHT30;61750;55.036;73.312;2022-12-07T04:09:53;-15.65;71.70
73509;SHT30;61750;55.036;73.312;2022-12-07T04:12:21;-15.68;71.54
73509;SHT30;61750;55.036;73.312;2022-12-07T04:14:48;-15.69;71.76
73509;SHT30;61750;55.036;73.312;2022-12-07T04:17:13;-15.66;71.75
73509;SHT30;61750;55.036;73.312;2022-12-07T04:19:49;-15.65;71.87
73509;SHT30;61750;55.036;73.312;2022-12-07T04:22:15;-15.68;71.95
73509;SHT30;61750;55.036;73.312;2022-12-07T04:24:41;-15.62;72.22
73509;SHT30;61750;55.036;73.312;2022-12-07T04:27:07;-15.68;72.18
73509;SHT30;61750;55.036;73.312;2022-12-07T04:29:48;-15.65;72.75
73509;SHT30;61750;55.036;73.312;2022-12-07T04:32:13;-15.68;72.99
73509;SHT30;61750;55.036;73.312;2022-12-07T04:34:48;-15.61;73.52
73509;SHT30;61750;55.036;73.312;2022-12-07T04:37:14;-15.57;73.58
73509;SHT30;61750;55.036;73.312;2022-12-07T04:39:49;-15.55;73.40
73509;SHT30;61750;55.036;73.312;2022-12-07T04:42:15;-15.42;73.54
73509;SHT30;61750;55.036;73.312;2022-12-07T04:44:48;-15.44;73.30
73509;SHT30;61750;55.036;73.312;2022-12-07T04:47:14;-15.45;73.00
73509;SHT30;61750;55.036;73.312;2022-12-07T04:49:48;-15.42;73.25
73509;SHT30;61750;55.036;73.312;2022-12-07T04:52:14;-15.47;73.45
73509;SHT30;61750;55.036;73.312;2022-12-07T04:54:39;-15.31;73.86
73509;SHT30;61750;55.036;73.312;2022-12-07T04:57:05;-15.18;73.22
73509;SHT30;61750;55.036;73.312;2022-12-07T04:59:48;-15.13;72.62
73509;SHT30;61750;55.036;73.312;2022-12-07T05:02:18;-15.04;72.27
73509;SHT30;61750;55.036;73.312;2022-12-07T05:04:48;-14.94;72.29
73509;SHT30;61750;55.036;73.312;2022-12-07T05:07:14;-14.94;71.91
73509;SHT30;61750;55.036;73.312;2022-12-07T05:09:48;-14.96;71.91
73509;SHT30;61750;55.036;73.312;2022-12-07T05:12:14;-14.93;72.35
73509;SHT30;61750;55.036;73.312;2022-12-07T05:14:48;-14.94;72.72
73509;SHT30;61750;55.036;73.312;2022-12-07T05:17:13;-14.87;72.63
73509;SHT30;61750;55.036;73.312;2022-12-07T05:19:48;-14.96;72.39
73509;SHT30;61750;55.036;73.312;2022-12-07T05:22:16;-15.04;72.54
73509;SHT30;61750;55.036;73.312;2022-12-07T05:24:42;-15.11;72.84
73509;SHT30;61750;55.036;73.312;2022-12-07T05:27:08;-15.13;73.15
73509;SHT30;61750;55.036;73.312;2022-12-07T05:29:49;-15.04;73.16
73509;SHT30;61750;55.036;73.312;2022-12-07T05:32:15;-14.92;73.80
73509;SHT30;61750;55.036;73.312;2022-12-07T05:34:48;-14.84;73.03
73509;SHT30;61750;55.036;73.312;2022-12-07T05:37:14;-14.90;72.48
73509;SHT30;61750;55.036;73.312;2022-12-07T05:39:48;-14.94;72.48
73509;SHT30;61750;55.036;73.312;2022-12-07T05:42:14;-14.83;72.80
73509;SHT30;61750;55.036;73.312;2022-12-07T05:44:48;-14.80;72.55
73509;SHT30;61750;55.036;73.312;2022-12-07T05:47:14;-14.76;72.15
73509;SHT30;61750;55.036;73.312;2022-12-07T05:49:48;-14.71;71.85
73509;SHT30;61750;55.036;73.312;2022-12-07T05:52:14;-14.59;71.83
73509;SHT30;61750;55.036;73.312;2022-12-07T05:54:41;-14.39;71.96
73509;SHT30;61750;55.036;73.312;2022-12-07T05:57:17;-14.37;71.28
73509;SHT30;61750;55.036;73.312;2022-12-07T05:59:48;-14.35;70.84
73509;SHT30;61750;55.036;73.312;2022-12-07T06:02:14;-14.31;71.20
73509;SHT30;61750;55.036;73.312;2022-12-07T06:04:48;-14.29;70.71
73509;SHT30;61750;55.036;73.312;2022-12-07T06:07:14;-14.21;70.39
73509;SHT30;61750;55.036;73.312;2022-12-07T06:09:48;-14.10;70.44
73509;SHT30;61750;55.036;73.312;2022-12-07T06:12:14;-14.16;69.77
73509;SHT30;61750;55.036;73.312;2022-12-07T06:14:58;-14.10;70.02
73509;SHT30;61750;55.036;73.312;2022-12-07T06:17:34;-13.94;70.05
73509;SHT30;61750;55.036;73.312;2022-12-07T06:20:00;-13.88;69.27
73509;SHT30;61750;55.036;73.312;2022-12-07T06:22:26;-14.04;68.43
73509;SHT30;61750;55.036;73.312;2022-12-07T06:24:52;-14.08;68.78
73509;SHT30;61750;55.036;73.312;2022-12-07T06:27:28;-14.14;68.93
73509;SHT30;61750;55.036;73.312;2022-12-07T06:29:54;-14.11;69.13
73509;SHT30;61750;55.036;73.312;2022-12-07T06:32:20;-14.10;68.94
73509;SHT30;61750;55.036;73.312;2022-12-07T06:34:48;-13.84;69.45
73509;SHT30;61750;55.036;73.312;2022-12-07T06:37:14;-13.66;68.92
73509;SHT30;61750;55.036;73.312;2022-12-07T06:39:48;-13.57;68.56
73509;SHT30;61750;55.036;73.312;2022-12-07T06:42:13;-13.52;68.58
73509;SHT30;61750;55.036;73.312;2022-12-07T06:44:48;-13.56;68.02
73509;SHT30;61750;55.036;73.312;2022-12-07T06:47:14;-13.56;68.01
73509;SHT30;61750;55.036;73.312;2022-12-07T06:49:48;-13.53;67.94
73509;SHT30;61750;55.036;73.312;2022-12-07T06:55:11;-13.62;67.38
73509;SHT30;61750;55.036;73.312;2022-12-07T06:57:40;-13.62;67.77
73509;SHT30;61750;55.036;73.312;2022-12-07T07:00:06;-13.47;68.35
73509;SHT30;61750;55.036;73.312;2022-12-07T07:02:43;-13.36;67.67
73509;SHT30;61750;55.036;73.312;2022-12-07T07:05:18;-13.38;66.71
73509;SHT30;61750;55.036;73.312;2022-12-07T07:07:48;-13.39;66.80
73509;SHT30;61750;55.036;73.312;2022-12-07T07:10:14;-13.36;67.05
73509;SHT30;61750;55.036;73.312;2022-12-07T07:12:50;-13.44;67.12
73509;SHT30;61750;55.036;73.312;2022-12-07T07:15:16;-13.33;67.13
73509;SHT30;61750;55.036;73.312;2022-12-07T07:17:47;-13.32;66.92
73509;SHT30;61750;55.036;73.312;2022-12-07T07:20:13;-13.22;67.22
73509;SHT30;61750;55.036;73.312;2022-12-07T07:22:39;-13.12;66.94
73509;SHT30;61750;55.036;73.312;2022-12-07T07:25:16;-13.16;66.70
73509;SHT30;61750;55.036;73.312;2022-12-07T07:27:42;-13.25;66.50
73509;SHT30;61750;55.036;73.312;2022-12-07T07:30:08;-13.28;66.40
73509;SHT30;61750;55.036;73.312;2022-12-07T07:32:34;-13.16;66.55
73509;SHT30;61750;55.036;73.312;2022-12-07T07:35:00;-13.15;66.47
73509;SHT30;61750;55.036;73.312;2022-12-07T07:37:26;-13.15;66.78
73509;SHT30;61750;55.036;73.312;2022-12-07T07:39:52;-13.20;66.19
73509;SHT30;61750;55.036;73.312;2022-12-07T07:42:23;-13.22;66.35
73509;SHT30;61750;55.036;73.312;2022-12-07T07:45:00;-13.14;66.27
73509;SHT30;61750;55.036;73.312;2022-12-07T07:47:26;-13.08;66.81
73509;SHT30;61750;55.036;73.312;2022-12-07T07:50:02;-13.07;66.61
73509;SHT30;61750;55.036;73.312;2022-12-07T07:52:27;-12.98;66.98
73509;SHT30;61750;55.036;73.312;2022-12-07T07:54:57;-12.95;66.29
73509;SHT30;61750;55.036;73.312;2022-12-07T07:57:28;-12.89;66.77
73509;SHT30;61750;55.036;73.312;2022-12-07T08:00:05;-12.99;66.08
73509;SHT30;61750;55.036;73.312;2022-12-07T08:02:38;-13.08;65.35
73509;SHT30;61750;55.036;73.312;2022-12-07T08:05:04;-12.99;65.49
73509;SHT30;61750;55.036;73.312;2022-12-07T08:07:30;-12.99;65.23
73509;SHT30;61750;55.036;73.312;2022-12-07T08:09:56;-12.91;66.16
73509;SHT30;61750;55.036;73.312;2022-12-07T08:12:22;-12.99;65.46
73509;SHT30;61750;55.036;73.312;2022-12-07T08:14:48;-13.19;64.63
73509;SHT30;61750;55.036;73.312;2022-12-07T08:17:14;-13.20;65.30
73509;SHT30;61750;55.036;73.312;2022-12-07T08:19:48;-13.14;66.30
73509;SHT30;61750;55.036;73.312;2022-12-07T08:22:13;-13.15;65.96
73509;SHT30;61750;55.036;73.312;2022-12-07T08:24:39;-13.14;66.23
73509;SHT30;61750;55.036;73.312;2022-12-07T08:27:05;-13.12;66.54
73509;SHT30;61750;55.036;73.312;2022-12-07T08:29:48;-13.09;65.91
73509;SHT30;61750;55.036;73.312;2022-12-07T08:32:14;-13.12;65.96
73509;SHT30;61750;55.036;73.312;2022-12-07T08:34:48;-12.99;66.46
73509;SHT30;61750;55.036;73.312;2022-12-07T08:37:14;-13.05;64.98
73509;SHT30;61750;55.036;73.312;2022-12-07T08:39:48;-13.02;65.11
73509;SHT30;61750;55.036;73.312;2022-12-07T08:42:13;-13.14;65.11
73509;SHT30;61750;55.036;73.312;2022-12-07T08:44:48;-13.18;65.55
73509;SHT30;61750;55.036;73.312;2022-12-07T08:47:14;-13.14;65.80
73509;SHT30;61750;55.036;73.312;2022-12-07T08:49:48;-13.04;65.76
73509;SHT30;61750;55.036;73.312;2022-12-07T08:52:15;-12.99;65.70
73509;SHT30;61750;55.036;73.312;2022-12-07T08:54:41;-13.02;65.81
73509;SHT30;61750;55.036;73.312;2022-12-07T08:57:17;-13.09;64.43
73509;SHT30;61750;55.036;73.312;2022-12-07T08:59:48;-13.19;64.54
73509;SHT30;61750;55.036;73.312;2022-12-07T09:02:14;-13.19;64.54
73509;SHT30;61750;55.036;73.312;2022-12-07T09:04:48;-13.09;64.28
73509;SHT30;61750;55.036;73.312;2022-12-07T09:07:14;-13.15;63.77
73509;SHT30;61750;55.036;73.312;2022-12-07T09:09:48;-13.20;63.44
73509;SHT30;61750;55.036;73.312;2022-12-07T09:12:13;-13.32;63.56
73509;SHT30;61750;55.036;73.312;2022-12-07T09:14:48;-13.26;64.04
73509;SHT30;61750;55.036;73.312;2022-12-07T09:17:14;-13.29;63.42
73509;SHT30;61750;55.036;73.312;2022-12-07T09:19:48;-13.35;62.78
73509;SHT30;61750;55.036;73.312;2022-12-07T09:22:18;-13.43;62.72
73509;SHT30;61750;55.036;73.312;2022-12-07T09:24:45;-13.43;63.76
73509;SHT30;61750;55.036;73.312;2022-12-07T09:27:21;-13.46;63.71
73509;SHT30;61750;55.036;73.312;2022-12-07T09:29:48;-13.57;63.82
73509;SHT30;61750;55.036;73.312;2022-12-07T09:32:13;-13.50;64.73
73509;SHT30;61750;55.036;73.312;2022-12-07T09:34:49;-13.54;65.18
73509;SHT30;61750;55.036;73.312;2022-12-07T09:37:21;-13.56;65.69
73509;SHT30;61750;55.036;73.312;2022-12-07T09:39:48;-13.57;66.68
73509;SHT30;61750;55.036;73.312;2022-12-07T09:42:26;-13.49;67.88
73509;SHT30;61750;55.036;73.312;2022-12-07T09:44:53;-13.53;67.80
73509;SHT30;61750;55.036;73.312;2022-12-07T09:47:19;-13.62;67.97
73509;SHT30;61750;55.036;73.312;2022-12-07T09:50:00;-13.63;68.59
73509;SHT30;61750;55.036;73.312;2022-12-07T09:52:29;-13.64;67.87
73509;SHT30;61750;55.036;73.312;2022-12-07T09:54:55;-13.62;68.51
73509;SHT30;61750;55.036;73.312;2022-12-07T09:57:32;-13.67;67.27
73509;SHT30;61750;55.036;73.312;2022-12-07T10:00:04;-13.63;67.99
73509;SHT30;61750;55.036;73.312;2022-12-07T10:02:41;-13.70;67.32
73509;SHT30;61750;55.036;73.312;2022-12-07T10:05:19;-13.71;67.43
73509;SHT30;61750;55.036;73.312;2022-12-07T10:07:53;-13.69;66.88
73509;SHT30;61750;55.036;73.312;2022-12-07T10:10:22;-13.83;66.36
73509;SHT30;61750;55.036;73.312;2022-12-07T10:13:07;-13.86;66.79
73509;SHT30;61750;55.036;73.312;2022-12-07T10:15:46;-13.91;67.44
73509;SHT30;61750;55.036;73.312;2022-12-07T10:21:04;-14.03;66.74
73509;SHT30;61750;55.036;73.312;2022-12-07T10:27:58;-14.14;67.64
73509;SHT30;61750;55.036;73.312;2022-12-07T10:30:45;-14.17;68.04
73509;SHT30;61750;55.036;73.312;2022-12-07T10:37:42;-14.44;68.92
73509;SHT30;61750;55.036;73.312;2022-12-07T10:40:28;-14.44;69.07
73509;SHT30;61750;55.036;73.312;2022-12-07T10:43:02;-14.34;69.47
73509;SHT30;61750;55.036;73.312;2022-12-07T10:45:28;-14.32;69.15
73509;SHT30;61750;55.036;73.312;2022-12-07T11:00:08;-14.32;69.69
73509;SHT30;61750;55.036;73.312;2022-12-07T11:05:26;-14.24;70.05
73509;SHT30;61750;55.036;73.312;2022-12-07T11:15:24;-14.48;69.98
73509;SHT30;61750;55.036;73.312;2022-12-07T11:17:55;-14.49;70.18
73509;SHT30;61750;55.036;73.312;2022-12-07T11:30:48;-14.80;71.91
73509;SHT30;61750;55.036;73.312;2022-12-07T11:37:46;-14.94;72.78
73509;SHT30;61750;55.036;73.312;2022-12-07T11:40:31;-14.97;73.04
73509;SHT30;61750;55.036;73.312;2022-12-07T11:47:30;-15.03;73.60
73509;SHT30;61750;55.036;73.312;2022-12-07T11:52:37;-15.17;74.04
73509;SHT30;61750;55.036;73.312;2022-12-07T11:55:14;-15.23;74.23
73509;SHT30;61750;55.036;73.312;2022-12-07T11:57:46;-15.23;74.28
73509;SHT30;61750;55.036;73.312;2022-12-07T12:00:15;-15.26;74.50
73509;SHT30;61750;55.036;73.312;2022-12-07T12:07:40;-15.21;74.62
73509;SHT30;61750;55.036;73.312;2022-12-07T12:10:15;-15.20;74.60
73509;SHT30;61750;55.036;73.312;2022-12-07T12:20:36;-15.23;74.69
73509;SHT30;61750;55.036;73.312;2022-12-07T12:28:48;-15.23;74.99
73509;SHT30;61750;55.036;73.312;2022-12-07T12:31:09;-15.30;74.65
73509;SHT30;61750;55.036;73.312;2022-12-07T12:40:41;-15.45;75.05
73509;SHT30;61750;55.036;73.312;2022-12-07T12:48:11;-15.52;75.46
73509;SHT30;61750;55.036;73.312;2022-12-07T12:50:59;-15.59;75.37
73509;SHT30;61750;55.036;73.312;2022-12-07T12:57:28;-15.69;75.96
73509;SHT30;61750;55.036;73.312;2022-12-07T13:02:21;-15.96;75.73
73509;SHT30;61750;55.036;73.312;2022-12-07T13:04:54;-16.03;76.02
73509;SHT30;61750;55.036;73.312;2022-12-07T13:08:17;-16.09;76.27
73509;SHT30;61750;55.036;73.312;2022-12-07T13:20:40;-16.41;77.26
73509;SHT30;61750;55.036;73.312;2022-12-07T13:23:08;-16.51;77.30
73509;SHT30;61750;55.036;73.312;2022-12-07T13:25:40;-16.54;77.53
73509;SHT30;61750;55.036;73.312;2022-12-07T13:28:17;-16.62;77.56
73509;SHT30;61750;55.036;73.312;2022-12-07T13:31:12;-16.69;77.68
73509;SHT30;61750;55.036;73.312;2022-12-07T13:37:57;-16.82;78.11
73509;SHT30;61750;55.036;73.312;2022-12-07T13:40:23;-16.89;78.20
73509;SHT30;61750;55.036;73.312;2022-12-07T13:42:56;-16.91;78.36
73509;SHT30;61750;55.036;73.312;2022-12-07T13:45:24;-16.93;78.54
73509;SHT30;61750;55.036;73.312;2022-12-07T13:48:13;-16.93;78.50
73509;SHT30;61750;55.036;73.312;2022-12-07T13:50:40;-16.99;78.47
73509;SHT30;61750;55.036;73.312;2022-12-07T13:57:27;-16.98;78.80
73509;SHT30;61750;55.036;73.312;2022-12-07T13:59:54;-17.01;78.79
73509;SHT30;61750;55.036;73.312;2022-12-07T14:02:27;-17.02;78.75
73509;SHT30;61750;55.036;73.312;2022-12-07T14:05:06;-17.08;78.76
73509;SHT30;61750;55.036;73.312;2022-12-07T14:07:53;-17.12;78.80
73509;SHT30;61750;55.036;73.312;2022-12-07T14:10:34;-17.09;78.77
73509;SHT30;61750;55.036;73.312;2022-12-07T14:17:20;-17.18;78.89
73509;SHT30;61750;55.036;73.312;2022-12-07T14:19:55;-17.18;78.89
73509;SHT30;61750;55.036;73.312;2022-12-07T14:22:28;-17.19;78.77
73509;SHT30;61750;55.036;73.312;2022-12-07T14:27:57;-17.26;78.63
73509;SHT30;61750;55.036;73.312;2022-12-07T14:30:29;-17.30;78.59
73509;SHT30;61750;55.036;73.312;2022-12-07T14:33:02;-17.35;78.69
73509;SHT30;61750;55.036;73.312;2022-12-07T14:35:29;-17.36;78.77
73509;SHT30;61750;55.036;73.312;2022-12-07T14:37:55;-17.33;78.82
73509;SHT30;61750;55.036;73.312;2022-12-07T14:40:31;-17.35;78.71
73509;SHT30;61750;55.036;73.312;2022-12-07T14:43:01;-17.40;78.77
73509;SHT30;61750;55.036;73.312;2022-12-07T14:45:28;-17.42;78.80
73509;SHT30;61750;55.036;73.312;2022-12-07T14:47:54;-17.46;78.74
73509;SHT30;61750;55.036;73.312;2022-12-07T14:50:20;-17.46;78.88
73509;SHT30;61750;55.036;73.312;2022-12-07T14:53:01;-17.50;78.91
73509;SHT30;61750;55.036;73.312;2022-12-07T14:55:35;-17.53;79.01
73509;SHT30;61750;55.036;73.312;2022-12-07T14:58:02;-17.54;79.01
73509;SHT30;61750;55.036;73.312;2022-12-07T15:00:28;-17.57;79.06
73509;SHT30;61750;55.036;73.312;2022-12-07T15:02:54;-17.56;79.18
73509;SHT30;61750;55.036;73.312;2022-12-07T15:05:25;-17.59;79.04
73509;SHT30;61750;55.036;73.312;2022-12-07T15:07:51;-17.61;78.98
73509;SHT30;61750;55.036;73.312;2022-12-07T15:10:28;-17.59;79.33
73509;SHT30;61750;55.036;73.312;2022-12-07T15:12:59;-17.63;79.34
73509;SHT30;61750;55.036;73.312;2022-12-07T15:15:46;-17.57;79.42
73509;SHT30;61750;55.036;73.312;2022-12-07T15:18:12;-17.60;79.31
73509;SHT30;61750;55.036;73.312;2022-12-07T15:20:49;-17.61;79.30
73509;SHT30;61750;55.036;73.312;2022-12-07T15:23:15;-17.66;79.38
73509;SHT30;61750;55.036;73.312;2022-12-07T15:25:45;-17.69;79.53
73509;SHT30;61750;55.036;73.312;2022-12-07T15:28:11;-17.74;79.38
73509;SHT30;61750;55.036;73.312;2022-12-07T15:30:39;-17.74;79.56
73509;SHT30;61750;55.036;73.312;2022-12-07T15:33:07;-17.80;79.60
73509;SHT30;61750;55.036;73.312;2022-12-07T15:35:33;-17.85;79.64
73509;SHT30;61750;55.036;73.312;2022-12-07T15:38:00;-17.91;79.70
73509;SHT30;61750;55.036;73.312;2022-12-07T15:40:27;-17.94;79.57
73509;SHT30;61750;55.036;73.312;2022-12-07T15:42:53;-17.95;79.63
73509;SHT30;61750;55.036;73.312;2022-12-07T15:45:18;-18.02;79.44
73509;SHT30;61750;55.036;73.312;2022-12-07T15:47:44;-18.05;79.38
73509;SHT30;61750;55.036;73.312;2022-12-07T15:50:12;-18.12;79.27
73509;SHT30;61750;55.036;73.312;2022-12-07T15:52:48;-18.16;79.19
73509;SHT30;61750;55.036;73.312;2022-12-07T15:55:14;-18.25;79.11
73509;SHT30;61750;55.036;73.312;2022-12-07T15:57:41;-18.28;79.05
73509;SHT30;61750;55.036;73.312;2022-12-07T16:00:07;-18.37;78.87
73509;SHT30;61750;55.036;73.312;2022-12-07T16:02:47;-18.43;78.75
73509;SHT30;61750;55.036;73.312;2022-12-07T16:05:13;-18.49;78.66
73509;SHT30;61750;55.036;73.312;2022-12-07T16:07:39;-18.52;78.70
73509;SHT30;61750;55.036;73.312;2022-12-07T16:10:10;-18.60;78.70
73509;SHT30;61750;55.036;73.312;2022-12-07T16:12:36;-18.67;78.71
73509;SHT30;61750;55.036;73.312;2022-12-07T16:15:02;-18.71;78.72
73509;SHT30;61750;55.036;73.312;2022-12-07T16:17:34;-18.79;78.72
73509;SHT30;61750;55.036;73.312;2022-12-07T16:20:00;-18.83;78.66
73509;SHT30;61750;55.036;73.312;2022-12-07T16:22:25;-18.88;78.74
73509;SHT30;61750;55.036;73.312;2022-12-07T16:24:56;-18.94;78.66
73509;SHT30;61750;55.036;73.312;2022-12-07T16:27:22;-18.98;78.66
73509;SHT30;61750;55.036;73.312;2022-12-07T16:29:48;-19.01;78.49
73509;SHT30;61750;55.036;73.312;2022-12-07T16:32:14;-19.05;78.37
73509;SHT30;61750;55.036;73.312;2022-12-07T16:34:50;-19.08;78.29
73509;SHT30;61750;55.036;73.312;2022-12-07T16:37:16;-19.12;78.24
73509;SHT30;61750;55.036;73.312;2022-12-07T16:39:48;-19.14;78.34
73509;SHT30;61750;55.036;73.312;2022-12-07T16:42:14;-19.18;78.44
73509;SHT30;61750;55.036;73.312;2022-12-07T16:44:49;-19.18;78.50
73509;SHT30;61750;55.036;73.312;2022-12-07T16:47:15;-19.25;78.37
73509;SHT30;61750;55.036;73.312;2022-12-07T16:49:48;-19.29;78.35
73509;SHT30;61750;55.036;73.312;2022-12-07T16:52:14;-19.29;78.44
73509;SHT30;61750;55.036;73.312;2022-12-07T16:54:40;-19.31;78.52
73509;SHT30;61750;55.036;73.312;2022-12-07T16:57:06;-19.34;78.57
73509;SHT30;61750;55.036;73.312;2022-12-07T16:59:48;-19.36;78.47
73509;SHT30;61750;55.036;73.312;2022-12-07T17:02:19;-19.35;78.60
73509;SHT30;61750;55.036;73.312;2022-12-07T17:04:48;-19.38;78.54
73509;SHT30;61750;55.036;73.312;2022-12-07T17:07:14;-19.40;78.33
73509;SHT30;61750;55.036;73.312;2022-12-07T17:09:48;-19.46;78.29
73509;SHT30;61750;55.036;73.312;2022-12-07T17:12:24;-19.51;78.24
73509;SHT30;61750;55.036;73.312;2022-12-07T17:14:56;-19.49;78.36
73509;SHT30;61750;55.036;73.312;2022-12-07T17:17:41;-19.55;78.39
73509;SHT30;61750;55.036;73.312;2022-12-07T17:20:07;-19.55;78.51
73509;SHT30;61750;55.036;73.312;2022-12-07T17:22:37;-19.55;78.48
73509;SHT30;61750;55.036;73.312;2022-12-07T17:25:08;-19.55;78.47
73509;SHT30;61750;55.036;73.312;2022-12-07T17:27:35;-19.49;78.43
73509;SHT30;61750;55.036;73.312;2022-12-07T17:30:02;-19.42;78.34
73509;SHT30;61750;55.036;73.312;2022-12-07T17:32:33;-19.40;78.18
73509;SHT30;61750;55.036;73.312;2022-12-07T17:34:59;-19.38;77.99
73509;SHT30;61750;55.036;73.312;2022-12-07T17:37:31;-19.31;77.92
73509;SHT30;61750;55.036;73.312;2022-12-07T17:40:07;-19.42;77.29
73509;SHT30;61750;55.036;73.312;2022-12-07T17:42:38;-19.39;77.35
73509;SHT30;61750;55.036;73.312;2022-12-07T17:45:06;-19.42;77.10
73509;SHT30;61750;55.036;73.312;2022-12-07T17:47:37;-19.39;77.24
73509;SHT30;61750;55.036;73.312;2022-12-07T17:50:08;-19.45;76.89
73509;SHT30;61750;55.036;73.312;2022-12-07T17:52:44;-19.46;76.85
73509;SHT30;61750;55.036;73.312;2022-12-07T17:55:28;-19.55;76.92
73509;SHT30;61750;55.036;73.312;2022-12-07T17:57:55;-19.61;76.88
73509;SHT30;61750;55.036;73.312;2022-12-07T18:00:32;-19.58;77.14
73509;SHT30;61750;55.036;73.312;2022-12-07T18:03:04;-19.61;77.19
73509;SHT30;61750;55.036;73.312;2022-12-07T18:05:36;-19.61;77.05